sensor_id;sensor_type;location;lat;lon;timestamp;pressure;altitude;pressure_sealevel;temperature;humidity
6347;BME280;3206;42.666;23.600;2022-11-15T11:10:17;95480.50;;;11.34;100.00
6347;BME280;3206;42.666;23.600;2022-11-15T11:12:45;95472.78;;;11.44;100.00
6347;BME280;3206;42.666;23.600;2022-11-15T11:15:14;95463.13;;;11.64;100.00
6347;BME280;3206;42.666;23.600;2022-11-15T11:22:18;95451.88;;;11.34;100.00
6347;BME280;3206;42.666;23.600;2022-11-15T11:24:52;95437.56;;;11.54;100.00
6347;BME280;3206;42.666;23.600;2022-11-15T11:27:32;95433.63;;;11.13;100.00
6347;BME280;3206;42.666;23.600;2022-11-15T11:30:08;95431.16;;;10.96;100.00
6347;BME280;3206;42.666;23.600;2022-11-15T11:33:05;95422.44;;;10.63;100.00
6347;BME280;3206;42.666;23.600;2022-11-15T11:35:43;95414.75;;;10.61;100.00
6347;BME280;3206;42.666;23.600;2022-11-15T11:38:32;95406.88;;;10.89;100.00
6347;BME280;3206;42.666;23.600;2022-11-15T11:41:07;95407.78;;;10.81;100.00
6347;BME280;3206;42.666;23.600;2022-11-15T11:43:42;95405.09;;;10.93;100.00
6347;BME280;3206;42.666;23.600;2022-11-15T11:46:33;95396.06;;;10.73;100.00
6347;BME280;3206;42.666;23.600;2022-11-15T11:49:08;95402.63;;;10.64;100.00
6347;BME280;3206;42.666;23.600;2022-11-15T11:51:41;95396.28;;;10.56;100.00
6347;BME280;3206;42.666;23.600;2022-11-15T11:54:12;95392.25;;;10.50;100.00
6347;BME280;3206;42.666;23.600;2022-11-15T11:56:43;95389.47;;;10.47;100.00
6347;BME280;3206;42.666;23.600;2022-11-15T11:59:17;95375.84;;;10.16;100.00
6347;BME280;3206;42.666;23.600;2022-11-15T12:01:45;95367.59;;;10.21;100.00
6347;BME280;3206;42.666;23.600;2022-11-15T12:04:16;95364.06;;;10.29;100.00
6347;BME280;3206;42.666;23.600;2022-11-15T12:06:50;95358.63;;;10.37;100.00
6347;BME280;3206;42.666;23.600;2022-11-15T12:09:23;95361.31;;;10.49;100.00
6347;BME280;3206;42.666;23.600;2022-11-15T12:12:00;95363.44;;;10.56;100.00
6347;BME280;3206;42.666;23.600;2022-11-15T12:14:35;95350.78;;;10.65;100.00
6347;BME280;3206;42.666;23.600;2022-11-15T12:17:07;95344.19;;;10.62;100.00
6347;BME280;3206;42.666;23.600;2022-11-15T12:19:35;95350.75;;;10.77;100.00
6347;BME280;3206;42.666;23.600;2022-11-15T12:22:13;95343.06;;;10.87;100.00
6347;BME280;3206;42.666;23.600;2022-11-15T12:24:50;95331.69;;;11.02;100.00
6347;BME280;3206;42.666;23.600;2022-11-15T12:27:23;95322.41;;;10.72;100.00
6347;BME280;3206;42.666;23.600;2022-11-15T12:29:55;95331.84;;;10.58;100.00
6347;BME280;3206;42.666;23.600;2022-11-15T12:32:28;95328.28;;;10.54;100.00
6347;BME280;3206;42.666;23.600;2022-11-15T12:34:56;95329.16;;;10.58;100.00
6347;BME280;3206;42.666;23.600;2022-11-15T12:37:47;95325.28;;;10.55;100.00
6347;BME280;3206;42.666;23.600;2022-11-15T12:40:29;95322.25;;;10.57;100.00
6347;BME280;3206;42.666;23.600;2022-11-15T12:42:59;95322.03;;;10.38;100.00
6347;BME280;3206;42.666;23.600;2022-11-15T12:45:29;95313.13;;;10.34;100.00
6347;BME280;3206;42.666;23.600;2022-11-15T12:50:54;95300.78;;;10.77;100.00
6347;BME280;3206;42.666;23.600;2022-11-15T12:53:30;95297.00;;;10.90;100.00
6347;BME280;3206;42.666;23.600;2022-11-15T12:56:21;95300.78;;;10.77;100.00
6347;BME280;3206;42.666;23.600;2022-11-15T12:58:50;95298.63;;;10.95;100.00
6347;BME280;3206;42.666;23.600;2022-11-15T13:01:52;95299.13;;;10.73;100.00
6347;BME280;3206;42.666;23.600;2022-11-15T13:04:25;95298.31;;;11.08;100.00
6347;BME280;3206;42.666;23.600;2022-11-15T13:06:53;95298.50;;;11.15;100.00
6347;BME280;3206;42.666;23.600;2022-11-15T13:09:55;95292.47;;;11.18;100.00
6347;BME280;3206;42.666;23.600;2022-11-15T13:12:54;95279.81;;;11.42;100.00
6347;BME280;3206;42.666;23.600;2022-11-15T13:15:33;95285.50;;;11.41;100.00
6347;BME280;3206;42.666;23.600;2022-11-15T13:18:24;95279.16;;;11.45;100.00
6347;BME280;3206;42.666;23.600;2022-11-15T13:20:52;95278.97;;;11.66;100.00
6347;BME280;3206;42.666;23.600;2022-11-15T13:23:21;95276.66;;;11.64;100.00
6347;BME280;3206;42.666;23.600;2022-11-15T13:26:10;95266.22;;;11.47;100.00
6347;BME280;3206;42.666;23.600;2022-11-15T13:28:42;95256.69;;;10.83;100.00
6347;BME280;3206;42.666;23.600;2022-11-15T13:31:25;95258.81;;;10.78;100.00
6347;BME280;3206;42.666;23.600;2022-11-15T13:33:53;95253.25;;;10.83;100.00
6347;BME280;3206;42.666;23.600;2022-11-15T13:36:24;95255.59;;;11.23;100.00
6347;BME280;3206;42.666;23.600;2022-11-15T13:38:57;95251.63;;;11.45;100.00
6347;BME280;3206;42.666;23.600;2022-11-15T13:41:27;95251.59;;;11.57;100.00
6347;BME280;3206;42.666;23.600;2022-11-15T13:43:55;95249.91;;;11.64;100.00
6347;BME280;3206;42.666;23.600;2022-11-15T13:46:24;95246.00;;;11.62;100.00
6347;BME280;3206;42.666;23.600;2022-11-15T13:48:54;95252.13;;;11.62;100.00
6347;BME280;3206;42.666;23.600;2022-11-15T13:51:25;95246.78;;;11.62;100.00
6347;BME280;3206;42.666;23.600;2022-11-15T13:53:57;95242.19;;;11.63;100.00
6347;BME280;3206;42.666;23.600;2022-11-15T13:56:27;95247.28;;;11.68;100.00
6347;BME280;3206;42.666;23.600;2022-11-15T13:58:55;95247.56;;;11.63;100.00
6347;BME280;3206;42.666;23.600;2022-11-15T14:01:22;95243.84;;;11.67;100.00
6347;BME280;3206;42.666;23.600;2022-11-15T14:03:53;95244.91;;;11.78;100.00
6347;BME280;3206;42.666;23.600;2022-11-15T14:06:22;95238.63;;;11.86;100.00
6347;BME280;3206;42.666;23.600;2022-11-15T14:11:58;95241.31;;;12.17;100.00
6347;BME280;3206;42.666;23.600;2022-11-15T14:14:25;95237.59;;;12.22;100.00
6347;BME280;3206;42.666;23.600;2022-11-15T14:16:54;95244.66;;;11.99;100.00
6347;BME280;3206;42.666;23.600;2022-11-15T14:19:38;95239.03;;;11.88;100.00
6347;BME280;3206;42.666;23.600;2022-11-15T14:22:11;95239.19;;;11.64;100.00
6347;BME280;3206;42.666;23.600;2022-11-15T14:24:39;95230.41;;;11.52;100.00
6347;BME280;3206;42.666;23.600;2022-11-15T14:27:22;95238.50;;;11.67;100.00
6347;BME280;3206;42.666;23.600;2022-11-15T14:29:50;95232.09;;;11.56;100.00
6347;BME280;3206;42.666;23.600;2022-11-15T14:32:18;95226.25;;;11.39;100.00
6347;BME280;3206;42.666;23.600;2022-11-15T14:34:46;95232.22;;;11.20;100.00
6347;BME280;3206;42.666;23.600;2022-11-15T14:37:20;95235.06;;;11.00;100.00
6347;BME280;3206;42.666;23.600;2022-11-15T14:39:48;95233.44;;;10.84;100.00
6347;BME280;3206;42.666;23.600;2022-11-15T14:42:15;95229.56;;;10.69;100.00
6347;BME280;3206;42.666;23.600;2022-11-15T14:44:43;95220.78;;;10.57;100.00
6347;BME280;3206;42.666;23.600;2022-11-15T14:47:10;95235.06;;;10.37;100.00
6347;BME280;3206;42.666;23.600;2022-11-15T14:49:36;95223.69;;;10.28;100.00
6347;BME280;3206;42.666;23.600;2022-11-15T14:52:07;95226.81;;;10.18;100.00
6347;BME280;3206;42.666;23.600;2022-11-15T14:54:42;95227.22;;;9.96;100.00
6347;BME280;3206;42.666;23.600;2022-11-15T14:57:09;95233.66;;;9.83;100.00
6347;BME280;3206;42.666;23.600;2022-11-15T14:59:35;95232.97;;;9.74;100.00
6347;BME280;3206;42.666;23.600;2022-11-15T15:02:09;95229.16;;;9.63;100.00
6347;BME280;3206;42.666;23.600;2022-11-15T15:04:40;95232.72;;;9.34;100.00
6347;BME280;3206;42.666;23.600;2022-11-15T15:07:06;95242.44;;;9.19;100.00
6347;BME280;3206;42.666;23.600;2022-11-15T15:09:33;95241.81;;;9.01;100.00
6347;BME280;3206;42.666;23.600;2022-11-15T15:12:00;95235.19;;;8.87;100.00
6347;BME280;3206;42.666;23.600;2022-11-15T15:14:26;95238.84;;;8.82;100.00
6347;BME280;3206;42.666;23.600;2022-11-15T15:16:53;95232.34;;;8.71;100.00
6347;BME280;3206;42.666;23.600;2022-11-15T15:19:21;95230.31;;;8.68;100.00
6347;BME280;3206;42.666;23.600;2022-11-15T15:21:47;95222.91;;;8.53;100.00
6347;BME280;3206;42.666;23.600;2022-11-15T15:24:14;95218.09;;;8.47;100.00
6347;BME280;3206;42.666;23.600;2022-11-15T15:26:41;95222.63;;;8.46;100.00
6347;BME280;3206;42.666;23.600;2022-11-15T15:29:08;95232.56;;;8.37;100.00
6347;BME280;3206;42.666;23.600;2022-11-15T15:31:35;95233.09;;;8.22;100.00
6347;BME280;3206;42.666;23.600;2022-11-15T15:34:04;95227.63;;;8.19;100.00
6347;BME280;3206;42.666;23.600;2022-11-15T15:36:32;95237.97;;;8.12;100.00
6347;BME280;3206;42.666;23.600;2022-11-15T15:38:58;95230.69;;;8.00;100.00
6347;BME280;3206;42.666;23.600;2022-11-15T15:41:25;95233.19;;;7.97;100.00
6347;BME280;3206;42.666;23.600;2022-11-15T15:43:52;95227.41;;;7.95;100.00
6347;BME280;3206;42.666;23.600;2022-11-15T15:46:19;95230.72;;;7.92;100.00
6347;BME280;3206;42.666;23.600;2022-11-15T15:48:46;95207.44;;;7.80;100.00
6347;BME280;3206;42.666;23.600;2022-11-15T15:51:13;95229.69;;;7.76;100.00
6347;BME280;3206;42.666;23.600;2022-11-15T15:53:41;95225.44;;;7.83;100.00
6347;BME280;3206;42.666;23.600;2022-11-15T15:56:08;95215.91;;;7.74;100.00
6347;BME280;3206;42.666;23.600;2022-11-15T15:58:35;95232.66;;;7.74;100.00
6347;BME280;3206;42.666;23.600;2022-11-15T16:01:02;95231.09;;;7.73;100.00
6347;BME280;3206;42.666;23.600;2022-11-15T16:03:28;95233.28;;;7.71;100.00
6347;BME280;3206;42.666;23.600;2022-11-15T16:05:55;95227.84;;;7.59;100.00
6347;BME280;3206;42.666;23.600;2022-11-15T16:08:24;95223.06;;;7.28;100.00
6347;BME280;3206;42.666;23.600;2022-11-15T16:10:53;95234.47;;;7.37;100.00
6347;BME280;3206;42.666;23.600;2022-11-15T16:13:19;95234.47;;;7.37;100.00
6347;BME280;3206;42.666;23.600;2022-11-15T16:15:49;95230.06;;;7.49;100.00
6347;BME280;3206;42.666;23.600;2022-11-15T16:18:17;95218.09;;;7.35;100.00
6347;BME280;3206;42.666;23.600;2022-11-15T16:20:46;95224.63;;;7.29;100.00
6347;BME280;3206;42.666;23.600;2022-11-15T16:23:16;95218.59;;;7.11;100.00
6347;BME280;3206;42.666;23.600;2022-11-15T16:25:45;95219.06;;;7.05;100.00
6347;BME280;3206;42.666;23.600;2022-11-15T16:28:18;95209.38;;;6.92;100.00
6347;BME280;3206;42.666;23.600;2022-11-15T16:30:45;95214.69;;;6.92;100.00
6347;BME280;3206;42.666;23.600;2022-11-15T16:33:12;95221.41;;;6.89;100.00
6347;BME280;3206;42.666;23.600;2022-11-15T16:35:39;95220.63;;;6.89;100.00
6347;BME280;3206;42.666;23.600;2022-11-15T16:38:06;95222.94;;;6.90;100.00
6347;BME280;3206;42.666;23.600;2022-11-15T16:40:34;95217.03;;;6.85;100.00
6347;BME280;3206;42.666;23.600;2022-11-15T16:43:01;95225.94;;;6.72;100.00
6347;BME280;3206;42.666;23.600;2022-11-15T16:45:33;95207.66;;;6.62;100.00
6347;BME280;3206;42.666;23.600;2022-11-15T16:48:00;95207.03;;;6.65;100.00
6347;BME280;3206;42.666;23.600;2022-11-15T16:50:29;95217.97;;;6.72;100.00
6347;BME280;3206;42.666;23.600;2022-11-15T16:52:57;95213.91;;;6.74;100.00
6347;BME280;3206;42.666;23.600;2022-11-15T16:55:26;95211.25;;;6.74;100.00
6347;BME280;3206;42.666;23.600;2022-11-15T16:57:53;95213.44;;;6.64;100.00
6347;BME280;3206;42.666;23.600;2022-11-15T17:00:22;95213.13;;;6.65;100.00
6347;BME280;3206;42.666;23.600;2022-11-15T17:02:51;95199.69;;;6.62;100.00
6347;BME280;3206;42.666;23.600;2022-11-15T17:05:20;95191.56;;;6.58;100.00
6347;BME280;3206;42.666;23.600;2022-11-15T17:07:49;95205.63;;;6.59;100.00
6347;BME280;3206;42.666;23.600;2022-11-15T17:10:18;95194.09;;;6.46;100.00
6347;BME280;3206;42.666;23.600;2022-11-15T17:12:45;95207.28;;;6.12;100.00
6347;BME280;3206;42.666;23.600;2022-11-15T17:15:12;95209.75;;;6.00;100.00
6347;BME280;3206;42.666;23.600;2022-11-15T17:17:39;95186.16;;;5.51;100.00
6347;BME280;3206;42.666;23.600;2022-11-15T17:20:13;95180.44;;;5.58;100.00
6347;BME280;3206;42.666;23.600;2022-11-15T17:22:40;95187.47;;;5.62;100.00
6347;BME280;3206;42.666;23.600;2022-11-15T17:25:07;95177.09;;;5.83;100.00
6347;BME280;3206;42.666;23.600;2022-11-15T17:27:34;95176.84;;;5.93;100.00
6347;BME280;3206;42.666;23.600;2022-11-15T17:30:01;95176.19;;;5.87;100.00
6347;BME280;3206;42.666;23.600;2022-11-15T17:32:27;95173.88;;;5.86;100.00
6347;BME280;3206;42.666;23.600;2022-11-15T17:34:54;95176.06;;;5.62;100.00
6347;BME280;3206;42.666;23.600;2022-11-15T17:37:22;95169.06;;;5.66;100.00
6347;BME280;3206;42.666;23.600;2022-11-15T17:39:49;95162.09;;;5.70;100.00
6347;BME280;3206;42.666;23.600;2022-11-15T17:42:15;95165.41;;;5.84;100.00
6347;BME280;3206;42.666;23.600;2022-11-15T17:44:42;95158.09;;;5.89;100.00
6347;BME280;3206;42.666;23.600;2022-11-15T17:47:09;95160.69;;;5.72;100.00
6347;BME280;3206;42.666;23.600;2022-11-15T17:49:35;95154.69;;;5.89;100.00
6347;BME280;3206;42.666;23.600;2022-11-15T17:52:05;95126.75;;;5.83;100.00
6347;BME280;3206;42.666;23.600;2022-11-15T17:54:33;95161.41;;;6.03;100.00
6347;BME280;3206;42.666;23.600;2022-11-15T17:56:59;95153.28;;;6.00;100.00
6347;BME280;3206;42.666;23.600;2022-11-15T17:59:26;95155.34;;;6.03;100.00
6347;BME280;3206;42.666;23.600;2022-11-15T18:01:53;95160.66;;;6.03;100.00
6347;BME280;3206;42.666;23.600;2022-11-15T18:04:19;95153.16;;;6.05;100.00
6347;BME280;3206;42.666;23.600;2022-11-15T18:06:52;95154.25;;;5.95;100.00
6347;BME280;3206;42.666;23.600;2022-11-15T18:09:19;95146.31;;;6.04;100.00
6347;BME280;3206;42.666;23.600;2022-11-15T18:11:47;95143.81;;;6.16;100.00
6347;BME280;3206;42.666;23.600;2022-11-15T18:14:16;95143.03;;;6.15;100.00
6347;BME280;3206;42.666;23.600;2022-11-15T18:16:43;95140.84;;;6.17;100.00
6347;BME280;3206;42.666;23.600;2022-11-15T18:19:10;95139.94;;;6.22;100.00
6347;BME280;3206;42.666;23.600;2022-11-15T18:21:39;95147.09;;;6.21;100.00
6347;BME280;3206;42.666;23.600;2022-11-15T18:24:19;95143.22;;;6.19;100.00
6347;BME280;3206;42.666;23.600;2022-11-15T18:26:47;95141.03;;;6.21;100.00
6347;BME280;3206;42.666;23.600;2022-11-15T18:29:14;95138.19;;;6.17;100.00
6347;BME280;3206;42.666;23.600;2022-11-15T18:31:41;95065.47;;;5.67;100.00
6347;BME280;3206;42.666;23.600;2022-11-15T18:34:08;95137.56;;;6.12;100.00
6347;BME280;3206;42.666;23.600;2022-11-15T18:36:35;95146.59;;;5.94;100.00
6347;BME280;3206;42.666;23.600;2022-11-15T18:39:03;95137.16;;;5.71;100.00
6347;BME280;3206;42.666;23.600;2022-11-15T18:41:31;95156.75;;;5.53;100.00
6347;BME280;3206;42.666;23.600;2022-11-15T18:44:01;95152.81;;;5.50;100.00
6347;BME280;3206;42.666;23.600;2022-11-15T18:46:30;95142.81;;;5.39;100.00
6347;BME280;3206;42.666;23.600;2022-11-15T18:48:58;95151.88;;;5.16;100.00
6347;BME280;3206;42.666;23.600;2022-11-15T18:51:26;95143.31;;;5.11;100.00
6347;BME280;3206;42.666;23.600;2022-11-15T18:53:55;95140.97;;;5.09;100.00
6347;BME280;3206;42.666;23.600;2022-11-15T18:56:23;95137.94;;;5.02;100.00
6347;BME280;3206;42.666;23.600;2022-11-15T18:58:52;95141.53;;;4.98;100.00
6347;BME280;3206;42.666;23.600;2022-11-15T19:01:22;95137.22;;;4.80;100.00
6347;BME280;3206;42.666;23.600;2022-11-15T19:03:50;95136.22;;;4.76;100.00
6347;BME280;3206;42.666;23.600;2022-11-15T19:06:18;95134.16;;;4.64;100.00
6347;BME280;3206;42.666;23.600;2022-11-15T19:08:47;95132.03;;;4.75;100.00
6347;BME280;3206;42.666;23.600;2022-11-15T19:11:15;95140.81;;;4.84;100.00
6347;BME280;3206;42.666;23.600;2022-11-15T19:13:42;95139.44;;;4.86;100.00
6347;BME280;3206;42.666;23.600;2022-11-15T19:16:11;95149.50;;;4.84;100.00
6347;BME280;3206;42.666;23.600;2022-11-15T19:18:40;95139.19;;;4.74;100.00
6347;BME280;3206;42.666;23.600;2022-11-15T19:21:08;95152.53;;;4.69;100.00
6347;BME280;3206;42.666;23.600;2022-11-15T19:23:36;95155.50;;;4.68;100.00
6347;BME280;3206;42.666;23.600;2022-11-15T19:26:04;95146.41;;;4.60;100.00
6347;BME280;3206;42.666;23.600;2022-11-15T19:28:32;95152.00;;;4.59;100.00
6347;BME280;3206;42.666;23.600;2022-11-15T19:31:02;95150.50;;;4.66;100.00
6347;BME280;3206;42.666;23.600;2022-11-15T19:33:29;95138.53;;;4.47;100.00
6347;BME280;3206;42.666;23.600;2022-11-15T19:36:00;95138.91;;;4.54;100.00
6347;BME280;3206;42.666;23.600;2022-11-15T19:38:26;95127.91;;;4.60;100.00
6347;BME280;3206;42.666;23.600;2022-11-15T19:40:57;95125.59;;;4.67;100.00
6347;BME280;3206;42.666;23.600;2022-11-15T19:43:23;95126.81;;;4.61;100.00
6347;BME280;3206;42.666;23.600;2022-11-15T19:45:51;95128.44;;;4.71;100.00
6347;BME280;3206;42.666;23.600;2022-11-15T19:48:18;95127.41;;;4.36;100.00
6347;BME280;3206;42.666;23.600;2022-11-15T19:50:45;95125.94;;;4.08;100.00
6347;BME280;3206;42.666;23.600;2022-11-15T19:53:13;95131.84;;;3.92;100.00
6347;BME280;3206;42.666;23.600;2022-11-15T19:55:39;95129.53;;;4.12;100.00
6347;BME280;3206;42.666;23.600;2022-11-15T19:58:06;95122.59;;;3.81;100.00
6347;BME280;3206;42.666;23.600;2022-11-15T20:00:33;95123.63;;;3.93;100.00
6347;BME280;3206;42.666;23.600;2022-11-15T20:02:59;95123.06;;;3.69;100.00
6347;BME280;3206;42.666;23.600;2022-11-15T20:05:26;95122.06;;;3.92;100.00
6347;BME280;3206;42.666;23.600;2022-11-15T20:07:53;95111.22;;;3.80;100.00
6347;BME280;3206;42.666;23.600;2022-11-15T20:10:21;95125.31;;;3.89;100.00
6347;BME280;3206;42.666;23.600;2022-11-15T20:12:47;95127.78;;;3.19;100.00
6347;BME280;3206;42.666;23.600;2022-11-15T20:15:14;95129.63;;;2.91;100.00
6347;BME280;3206;42.666;23.600;2022-11-15T20:17:41;95124.66;;;3.17;100.00
6347;BME280;3206;42.666;23.600;2022-11-15T20:20:08;95128.19;;;3.39;100.00
6347;BME280;3206;42.666;23.600;2022-11-15T20:22:36;95127.69;;;3.37;100.00
6347;BME280;3206;42.666;23.600;2022-11-15T20:25:03;95118.81;;;3.47;100.00
6347;BME280;3206;42.666;23.600;2022-11-15T20:27:31;95111.84;;;3.51;100.00
6347;BME280;3206;42.666;23.600;2022-11-15T20:29:58;95108.16;;;3.25;100.00
6347;BME280;3206;42.666;23.600;2022-11-15T20:32:24;95102.75;;;3.03;100.00
6347;BME280;3206;42.666;23.600;2022-11-15T20:34:52;95109.22;;;3.10;100.00
6347;BME280;3206;42.666;23.600;2022-11-15T20:37:18;95113.81;;;3.32;100.00
6347;BME280;3206;42.666;23.600;2022-11-15T20:39:45;95106.31;;;3.12;100.00
6347;BME280;3206;42.666;23.600;2022-11-15T20:42:12;95105.72;;;3.42;100.00
6347;BME280;3206;42.666;23.600;2022-11-15T20:44:40;95107.25;;;3.56;100.00
6347;BME280;3206;42.666;23.600;2022-11-15T20:47:07;95100.63;;;3.59;100.00
6347;BME280;3206;42.666;23.600;2022-11-15T20:49:33;95103.03;;;3.68;100.00
6347;BME280;3206;42.666;23.600;2022-11-15T20:52:00;95109.59;;;3.71;100.00
6347;BME280;3206;42.666;23.600;2022-11-15T20:54:27;95111.16;;;3.72;100.00
6347;BME280;3206;42.666;23.600;2022-11-15T20:56:53;95113.69;;;3.63;100.00
6347;BME280;3206;42.666;23.600;2022-11-15T20:59:20;95113.97;;;3.62;100.00
6347;BME280;3206;42.666;23.600;2022-11-15T21:01:48;95105.81;;;3.50;100.00
6347;BME280;3206;42.666;23.600;2022-11-15T21:04:14;95103.44;;;3.49;100.00
6347;BME280;3206;42.666;23.600;2022-11-15T21:06:41;95101.41;;;3.46;100.00
6347;BME280;3206;42.666;23.600;2022-11-15T21:09:08;95107.94;;;3.35;100.00
6347;BME280;3206;42.666;23.600;2022-11-15T21:11:52;95105.31;;;3.08;100.00
6347;BME280;3206;42.666;23.600;2022-11-15T21:14:37;95096.31;;;2.95;100.00
6347;BME280;3206;42.666;23.600;2022-11-15T21:17:05;95101.19;;;2.75;100.00
6347;BME280;3206;42.666;23.600;2022-11-15T21:19:32;95101.47;;;2.73;100.00
6347;BME280;3206;42.666;23.600;2022-11-15T21:21:59;95103.50;;;2.63;100.00
6347;BME280;3206;42.666;23.600;2022-11-15T21:24:26;95098.59;;;2.56;100.00
6347;BME280;3206;42.666;23.600;2022-11-15T21:26:53;95094.50;;;2.64;100.00
6347;BME280;3206;42.666;23.600;2022-11-15T21:29:20;95096.75;;;2.57;100.00
6347;BME280;3206;42.666;23.600;2022-11-15T21:31:48;95075.94;;;2.55;100.00
6347;BME280;3206;42.666;23.600;2022-11-15T21:34:17;95087.88;;;2.66;100.00
6347;BME280;3206;42.666;23.600;2022-11-15T21:36:44;95074.22;;;2.78;100.00
6347;BME280;3206;42.666;23.600;2022-11-15T21:39:11;95078.06;;;2.85;100.00
6347;BME280;3206;42.666;23.600;2022-11-15T21:41:37;95081.06;;;2.92;100.00
6347;BME280;3206;42.666;23.600;2022-11-15T21:44:04;95079.72;;;2.95;100.00
6347;BME280;3206;42.666;23.600;2022-11-15T21:46:31;95064.88;;;2.99;100.00
6347;BME280;3206;42.666;23.600;2022-11-15T21:48:58;95057.44;;;3.01;100.00
6347;BME280;3206;42.666;23.600;2022-11-15T21:51:26;95054.72;;;3.19;100.00
6347;BME280;3206;42.666;23.600;2022-11-15T21:53:53;95051.56;;;3.31;100.00
6347;BME280;3206;42.666;23.600;2022-11-15T21:56:21;95048.81;;;3.36;100.00
6347;BME280;3206;42.666;23.600;2022-11-15T21:58:48;95029.00;;;3.25;100.00
6347;BME280;3206;42.666;23.600;2022-11-15T22:01:14;95041.59;;;3.28;100.00
6347;BME280;3206;42.666;23.600;2022-11-15T22:03:58;95030.13;;;3.46;100.00
6347;BME280;3206;42.666;23.600;2022-11-15T22:06:26;95022.22;;;3.46;100.00
6347;BME280;3206;42.666;23.600;2022-11-15T22:08:53;95024.97;;;3.41;100.00
6347;BME280;3206;42.666;23.600;2022-11-15T22:11:19;95014.56;;;3.58;100.00
6347;BME280;3206;42.666;23.600;2022-11-15T22:13:46;95006.75;;;3.53;100.00
6347;BME280;3206;42.666;23.600;2022-11-15T22:16:13;94999.34;;;3.55;100.00
6347;BME280;3206;42.666;23.600;2022-11-15T22:18:39;95006.72;;;3.66;100.00
6347;BME280;3206;42.666;23.600;2022-11-15T22:21:09;95015.47;;;3.75;100.00
6347;BME280;3206;42.666;23.600;2022-11-15T22:23:37;94990.75;;;3.36;100.00
6347;BME280;3206;42.666;23.600;2022-11-15T22:26:05;95009.16;;;3.63;100.00
6347;BME280;3206;42.666;23.600;2022-11-15T22:28:32;95012.16;;;3.69;100.00
6347;BME280;3206;42.666;23.600;2022-11-15T22:30:59;95019.63;;;3.67;100.00
6347;BME280;3206;42.666;23.600;2022-11-15T22:33:28;95011.19;;;3.79;100.00
6347;BME280;3206;42.666;23.600;2022-11-15T22:35:56;94999.59;;;3.88;100.00
6347;BME280;3206;42.666;23.600;2022-11-15T22:38:23;95008.47;;;3.92;100.00
6347;BME280;3206;42.666;23.600;2022-11-15T22:40:52;95003.56;;;3.99;100.00
6347;BME280;3206;42.666;23.600;2022-11-15T22:43:20;95007.16;;;4.03;100.00
6347;BME280;3206;42.666;23.600;2022-11-15T22:45:51;95006.38;;;4.03;100.00
6347;BME280;3206;42.666;23.600;2022-11-15T22:48:19;95003.50;;;3.91;100.00
6347;BME280;3206;42.666;23.600;2022-11-15T22:50:46;94990.34;;;3.99;100.00
6347;BME280;3206;42.666;23.600;2022-11-15T22:53:13;94997.56;;;4.07;100.00
6347;BME280;3206;42.666;23.600;2022-11-15T22:55:40;94994.19;;;4.15;100.00
6347;BME280;3206;42.666;23.600;2022-11-15T22:58:08;94998.28;;;4.21;100.00
6347;BME280;3206;42.666;23.600;2022-11-15T23:00:35;94994.88;;;4.29;100.00
6347;BME280;3206;42.666;23.600;2022-11-15T23:03:02;94989.59;;;4.29;100.00
6347;BME280;3206;42.666;23.600;2022-11-15T23:05:29;94993.28;;;4.20;100.00
6347;BME280;3206;42.666;23.600;2022-11-15T23:07:56;94993.00;;;4.21;100.00
6347;BME280;3206;42.666;23.600;2022-11-15T23:10:23;94983.69;;;4.32;100.00
6347;BME280;3206;42.666;23.600;2022-11-15T23:13:11;94982.84;;;4.45;100.00
6347;BME280;3206;42.666;23.600;2022-11-15T23:15:46;94964.63;;;4.44;100.00
6347;BME280;3206;42.666;23.600;2022-11-15T23:18:32;94975.53;;;4.42;100.00
6347;BME280;3206;42.666;23.600;2022-11-15T23:21:06;94973.56;;;4.56;100.00
6347;BME280;3206;42.666;23.600;2022-11-15T23:23:34;94973.69;;;4.51;100.00
6347;BME280;3206;42.666;23.600;2022-11-15T23:26:00;94965.13;;;4.46;100.00
6347;BME280;3206;42.666;23.600;2022-11-15T23:28:28;94960.28;;;4.39;100.00
6347;BME280;3206;42.666;23.600;2022-11-15T23:31:01;94954.66;;;4.41;100.00
6347;BME280;3206;42.666;23.600;2022-11-15T23:33:45;94951.19;;;4.01;100.00
6347;BME280;3206;42.666;23.600;2022-11-15T23:36:24;94943.16;;;3.84;100.00
6347;BME280;3206;42.666;23.600;2022-11-15T23:38:51;94950.34;;;4.14;100.00
6347;BME280;3206;42.666;23.600;2022-11-15T23:41:20;94941.38;;;4.24;100.00
6347;BME280;3206;42.666;23.600;2022-11-15T23:43:49;94955.00;;;4.39;100.00
6347;BME280;3206;42.666;23.600;2022-11-15T23:46:16;94945.22;;;4.48;100.00
6347;BME280;3206;42.666;23.600;2022-11-15T23:48:43;94940.41;;;4.50;100.00
6347;BME280;3206;42.666;23.600;2022-11-15T23:51:10;94940.28;;;4.55;100.00
6347;BME280;3206;42.666;23.600;2022-11-15T23:53:36;94950.56;;;4.65;100.00
6347;BME280;3206;42.666;23.600;2022-11-15T23:56:05;94953.38;;;4.60;100.00
6347;BME280;3206;42.666;23.600;2022-11-15T23:58:32;94938.63;;;4.68;100.00
